Terminal Aerodrome Forecast
Issued by NWS

Home | Current Version | Previous Version | Text Only | Print | Product List | Glossary On
Versions: 1 2 3 4 5 6 7 8 9 10 11 12 13 14 15 16 17 18 19 20 21 22
000
FTUS43 KILX 201725
TAFBMI
TAF
KBMI 201725Z 2018/2118 21022G30KT P6SM SCT250
     FM210200 20012G23KT P6SM FEW250 WS015/23050KT
     FM210900 20012KT P6SM SCT250 WS015/23050KT
     FM211200 21012KT P6SM BKN200
     FM211500 24012G18KT P6SM BKN100
     FM211700 28013G22KT P6SM BKN080=

USA.gov is the U.S. government's official web portal to all federal, state and local government web resources and services.